Time;durP1;ratioP1;P1;durP2;ratioP2;P2;SDS_P1;SDS_P2;PMS_P1;PMS_P2;Temp;Humidity;BMP_temperature;BMP_pressure;BME280_temperature;BME280_humidity;BME280_pressure;Samples;Min_cycle;Max_cycle;Signal;HPM_P1;HPM_P2
2022/10/06 00:02:16;;;;;;;2.88;2.50;;;14.50;73.20;;;;;;5097759;28;20005;-64
2022/10/06 00:04:41;;;;;;;3.50;2.40;;;14.50;73.20;;;;;;5096090;28;20021;-63
2022/10/06 00:07:07;;;;;;;3.40;2.65;;;14.50;73.20;;;;;;5097765;28;20016;-63
2022/10/06 00:09:33;;;;;;;3.25;2.58;;;14.50;73.20;;;;;;5096483;28;20004;-61
2022/10/06 00:11:59;;;;;;;3.30;2.58;;;14.50;73.20;;;;;;5095371;28;20030;-60
2022/10/06 00:14:25;;;;;;;2.53;2.30;;;14.60;73.20;;;;;;5092259;28;20033;-63
2022/10/06 00:16:51;;;;;;;2.92;2.60;;;14.60;73.10;;;;;;5093205;28;20036;-63
2022/10/06 00:19:16;;;;;;;3.28;2.38;;;14.60;73.10;;;;;;5096960;28;20080;-63
2022/10/06 00:21:42;;;;;;;2.90;2.60;;;14.60;73.00;;;;;;5095030;28;20031;-61
2022/10/06 00:24:08;;;;;;;3.42;2.70;;;14.60;72.90;;;;;;5095677;28;20339;-64
2022/10/06 00:26:33;;;;;;;3.45;2.60;;;14.60;72.90;;;;;;5099397;28;20012;-61
2022/10/06 00:28:59;;;;;;;2.60;2.20;;;14.60;72.90;;;;;;5097104;28;20032;-62
2022/10/06 00:31:25;;;;;;;3.00;2.70;;;14.60;72.90;;;;;;5097117;28;20012;-63
2022/10/06 00:33:51;;;;;;;3.45;2.78;;;14.60;72.90;;;;;;5090399;28;20013;-61
2022/10/06 00:36:17;;;;;;;4.43;2.85;;;14.60;72.80;;;;;;5096628;28;20036;-64
2022/10/06 00:38:42;;;;;;;2.60;2.40;;;14.60;72.80;;;;;;5097024;28;20029;-60
2022/10/06 00:41:12;;;;;;;4.10;3.03;;;14.60;72.80;;;;;;5095862;28;20029;-64
2022/10/06 00:43:49;;;;;;;2.80;2.38;;;14.60;72.90;;;;;;5096318;28;20056;-60
2022/10/06 00:46:32;;;;;;;3.13;2.55;;;14.60;72.90;;;;;;5096834;28;20012;-64
2022/10/06 00:49:12;;;;;;;3.22;2.65;;;14.60;72.80;;;;;;5091332;28;20057;-62
2022/10/06 00:51:42;;;;;;;3.08;2.78;;;14.60;73.00;;;;;;5095776;28;20056;-62
2022/10/06 00:54:08;;;;;;;2.90;2.60;;;14.60;73.60;;;;;;5096651;28;20004;-61
2022/10/06 00:56:36;;;;;;;3.00;2.45;;;14.60;72.90;;;;;;5096275;28;20020;-63
2022/10/06 00:59:01;;;;;;;3.10;2.75;;;14.60;72.90;;;;;;5094415;28;20036;-63
2022/10/06 01:01:31;;;;;;;3.55;2.78;;;14.60;72.80;;;;;;5095891;28;20005;-63
2022/10/06 01:04:01;;;;;;;3.58;2.95;;;14.60;72.80;;;;;;5092633;28;20094;-63
2022/10/06 01:06:27;;;;;;;3.90;2.95;;;14.60;72.80;;;;;;5095019;28;20009;-62
2022/10/06 01:08:53;;;;;;;3.95;2.83;;;14.60;73.00;;;;;;5092960;28;20120;-63
2022/10/06 01:11:18;;;;;;;5.07;2.83;;;14.50;72.90;;;;;;5095165;28;20060;-64
2022/10/06 01:13:45;;;;;;;3.60;2.90;;;14.50;72.90;;;;;;5096358;28;20032;-60
2022/10/06 01:16:16;;;;;;;3.67;2.60;;;14.50;73.00;;;;;;5095074;28;20076;-60
2022/10/06 01:18:43;;;;;;;4.22;2.90;;;14.50;73.10;;;;;;5096208;28;20059;-63
2022/10/06 01:21:21;;;;;;;2.95;2.63;;;14.50;73.10;;;;;;5094170;28;20096;-60
2022/10/06 01:23:48;;;;;;;2.80;2.45;;;14.50;73.20;;;;;;5093548;28;20032;-62
2022/10/06 01:26:17;;;;;;;3.83;2.78;;;14.50;73.20;;;;;;5098682;28;20453;-63
2022/10/06 01:28:43;;;;;;;2.67;2.38;;;14.50;73.20;;;;;;5096144;28;20036;-60
2022/10/06 01:31:09;;;;;;;3.75;2.65;;;14.50;73.20;;;;;;5094484;28;20028;-60
2022/10/06 01:33:34;;;;;;;3.45;2.75;;;14.50;73.20;;;;;;5093571;28;20025;-63
2022/10/06 01:36:00;;;;;;;3.15;2.80;;;14.50;73.20;;;;;;5091611;28;20017;-60
2022/10/06 01:38:26;;;;;;;4.28;3.22;;;14.50;73.20;;;;;;5094355;28;20042;-64
2022/10/06 01:40:52;;;;;;;4.30;3.30;;;14.50;73.20;;;;;;5091462;28;20212;-63
2022/10/06 01:43:18;;;;;;;6.00;3.92;;;14.50;73.20;;;;;;5095321;28;20032;-62
2022/10/06 01:45:44;;;;;;;3.95;2.90;;;14.50;73.20;;;;;;5095375;28;20017;-60
2022/10/06 01:48:09;;;;;;;3.45;2.80;;;14.50;73.30;;;;;;5087376;28;20005;-61
2022/10/06 01:50:35;;;;;;;5.45;3.40;;;14.50;73.30;;;;;;5094666;28;20032;-63
2022/10/06 01:53:01;;;;;;;4.80;3.53;;;14.50;73.30;;;;;;5095214;28;20095;-62
2022/10/06 01:55:27;;;;;;;4.65;3.30;;;14.50;73.30;;;;;;5094673;28;20024;-62
2022/10/06 01:57:52;;;;;;;4.10;3.13;;;14.50;73.30;;;;;;5094597;28;20821;-61
2022/10/06 02:00:18;;;;;;;3.55;3.10;;;14.50;73.40;;;;;;5090970;28;20036;-62
2022/10/06 02:02:44;;;;;;;5.28;3.38;;;14.50;73.40;;;;;;5094248;28;20051;-62
2022/10/06 02:05:10;;;;;;;4.18;2.78;;;14.50;73.30;;;;;;5095409;28;20059;-64
2022/10/06 02:07:37;;;;;;;4.43;3.00;;;14.50;73.50;;;;;;5095624;28;20012;-64
2022/10/06 02:10:04;;;;;;;3.72;2.83;;;14.50;73.50;;;;;;5095139;28;20043;-62
2022/10/06 02:12:30;;;;;;;3.60;3.10;;;14.40;73.40;;;;;;5090711;28;20072;-63
2022/10/06 02:14:56;;;;;;;3.45;3.00;;;14.50;73.50;;;;;;5095132;28;20032;-64
2022/10/06 02:17:22;;;;;;;5.20;3.08;;;14.40;73.50;;;;;;5083225;28;20016;-63
2022/10/06 02:19:48;;;;;;;5.00;3.35;;;14.40;73.50;;;;;;5091365;28;20040;-64
2022/10/06 02:22:13;;;;;;;4.10;3.40;;;14.40;73.50;;;;;;5096300;28;20032;-63
2022/10/06 02:24:39;;;;;;;3.83;3.30;;;14.40;73.50;;;;;;5093608;28;20056;-63
2022/10/06 02:27:05;;;;;;;4.40;3.47;;;14.40;73.60;;;;;;5097572;28;20016;-62
2022/10/06 02:29:31;;;;;;;4.68;3.17;;;14.40;73.50;;;;;;5094578;28;20078;-63
2022/10/06 02:31:57;;;;;;;3.60;3.10;;;14.40;73.60;;;;;;5095429;28;20025;-63
2022/10/06 02:34:23;;;;;;;6.13;3.40;;;14.40;73.60;;;;;;5093452;28;20023;-64
2022/10/06 02:36:49;;;;;;;4.20;3.30;;;14.40;73.60;;;;;;5094803;28;20024;-63
2022/10/06 02:39:14;;;;;;;4.75;3.25;;;14.40;73.60;;;;;;5094794;28;20060;-64
2022/10/06 02:41:40;;;;;;;3.83;3.03;;;14.40;73.70;;;;;;5095310;28;20013;-61
2022/10/06 02:44:06;;;;;;;4.35;3.17;;;14.40;73.70;;;;;;5091847;28;20032;-63
2022/10/06 02:46:32;;;;;;;4.63;3.55;;;14.40;73.70;;;;;;5094426;28;20047;-63
2022/10/06 02:48:57;;;;;;;4.38;3.50;;;14.40;73.60;;;;;;5091332;28;20029;-63
2022/10/06 02:51:23;;;;;;;4.57;3.53;;;14.40;73.60;;;;;;5091886;28;20013;-64
2022/10/06 02:53:49;;;;;;;5.80;3.58;;;14.40;73.70;;;;;;5094231;28;20082;-63
2022/10/06 02:56:20;;;;;;;4.95;3.50;;;14.40;73.80;;;;;;5095305;28;20024;-64
2022/10/06 02:58:47;;;;;;;5.00;3.50;;;14.40;73.80;;;;;;5094494;28;20028;-64
2022/10/06 03:01:15;;;;;;;4.53;3.25;;;14.30;73.70;;;;;;5087431;28;20019;-62
2022/10/06 03:03:41;;;;;;;3.72;2.90;;;14.30;73.70;;;;;;5094409;28;20017;-62
2022/10/06 03:06:23;;;;;;;3.50;3.08;;;14.30;73.80;;;;;;5093152;28;20029;-63
2022/10/06 03:08:51;;;;;;;3.15;2.70;;;14.40;73.90;;;;;;5092818;28;20036;-63
2022/10/06 03:11:19;;;;;;;3.97;3.10;;;14.40;74.00;;;;;;5094375;28;20060;-64
2022/10/06 03:13:50;;;;;;;4.50;3.22;;;14.40;74.00;;;;;;5094649;28;20051;-61
2022/10/06 03:16:16;;;;;;;3.22;2.78;;;14.40;73.90;;;;;;5094938;28;20046;-64
2022/10/06 03:18:43;;;;;;;4.43;3.22;;;14.40;73.90;;;;;;5094001;28;20054;-61
2022/10/06 03:21:10;;;;;;;4.22;3.13;;;14.40;73.90;;;;;;5093579;28;20020;-63
2022/10/06 03:23:35;;;;;;;3.88;2.95;;;14.40;74.00;;;;;;5094040;28;20515;-64
2022/10/06 03:26:01;;;;;;;3.28;2.55;;;14.40;74.00;;;;;;5092157;28;20028;-63
2022/10/06 03:28:27;;;;;;;3.03;2.53;;;14.40;73.90;;;;;;5093810;28;20020;-63
2022/10/06 03:30:53;;;;;;;3.55;2.65;;;14.40;74.00;;;;;;5094806;28;20036;-64
2022/10/06 03:33:19;;;;;;;3.83;2.80;;;14.50;74.00;;;;;;5094995;28;20068;-64
2022/10/06 03:35:45;;;;;;;3.53;2.80;;;14.50;74.00;;;;;;5098514;28;20020;-63
2022/10/06 03:38:10;;;;;;;4.18;3.03;;;14.50;74.00;;;;;;5098495;28;20039;-60
2022/10/06 03:40:36;;;;;;;3.95;3.03;;;14.50;73.90;;;;;;5097721;28;20029;-64
2022/10/06 03:43:01;;;;;;;3.17;2.70;;;14.50;73.90;;;;;;5095718;28;20017;-61
2022/10/06 03:45:27;;;;;;;3.80;3.15;;;14.50;73.80;;;;;;5097919;28;20008;-63
2022/10/06 03:47:54;;;;;;;3.85;3.22;;;14.50;73.90;;;;;;5096386;28;20024;-63
2022/10/06 03:50:20;;;;;;;3.60;3.00;;;14.50;73.90;;;;;;5097124;28;20107;-63
2022/10/06 03:52:50;;;;;;;3.95;2.80;;;14.50;73.90;;;;;;5097498;28;20032;-61
2022/10/06 03:55:15;;;;;;;3.03;2.70;;;14.50;73.90;;;;;;5092684;28;20013;-64
2022/10/06 03:57:41;;;;;;;4.53;2.92;;;14.50;73.80;;;;;;5096050;28;20033;-63
2022/10/06 04:00:08;;;;;;;3.13;2.65;;;14.50;73.80;;;;;;5097479;28;20050;-63
2022/10/06 04:02:33;;;;;;;3.72;2.60;;;14.50;73.90;;;;;;5095118;28;20005;-64
2022/10/06 04:04:59;;;;;;;3.72;2.83;;;14.50;73.90;;;;;;5097672;28;20037;-61
2022/10/06 04:07:25;;;;;;;4.25;3.28;;;14.50;74.00;;;;;;5093931;28;20040;-63
2022/10/06 04:09:50;;;;;;;3.45;2.85;;;14.50;74.00;;;;;;5095638;28;20019;-63
2022/10/06 04:12:16;;;;;;;3.47;2.97;;;14.50;74.00;;;;;;5097754;28;20017;-63
2022/10/06 04:14:42;;;;;;;3.30;2.90;;;14.50;73.90;;;;;;5094861;28;20021;-63
2022/10/06 04:17:07;;;;;;;3.90;2.92;;;14.40;73.90;;;;;;5093717;28;20031;-63
2022/10/06 04:19:33;;;;;;;4.20;2.90;;;14.40;73.90;;;;;;5089807;28;20360;-62
2022/10/06 04:21:59;;;;;;;4.32;3.20;;;14.40;74.00;;;;;;5101234;28;20008;-60
2022/10/06 04:24:24;;;;;;;4.78;3.17;;;14.40;74.00;;;;;;5096026;28;20084;-64
2022/10/06 04:26:51;;;;;;;4.18;2.75;;;14.40;74.00;;;;;;5098884;28;20020;-64
2022/10/06 04:29:17;;;;;;;3.65;3.20;;;14.40;74.10;;;;;;5094265;28;20032;-61
2022/10/06 04:31:43;;;;;;;4.35;2.88;;;14.30;74.00;;;;;;5094673;28;20272;-60
2022/10/06 04:34:12;;;;;;;3.83;3.00;;;14.30;74.00;;;;;;5095905;28;20036;-62
2022/10/06 04:36:39;;;;;;;3.53;2.70;;;14.30;74.10;;;;;;5091446;28;20009;-60
2022/10/06 04:39:07;;;;;;;3.63;2.72;;;14.30;74.10;;;;;;5093240;28;20028;-60
2022/10/06 04:41:35;;;;;;;4.63;2.90;;;14.30;74.20;;;;;;5095616;28;20017;-63
2022/10/06 04:44:02;;;;;;;3.30;2.63;;;14.30;74.30;;;;;;5094338;28;20029;-61
2022/10/06 04:46:29;;;;;;;4.60;2.85;;;14.30;74.20;;;;;;5092157;28;20021;-62
2022/10/06 04:48:55;;;;;;;4.07;3.28;;;14.40;74.20;;;;;;5094586;28;20067;-63
2022/10/06 04:51:23;;;;;;;3.40;2.90;;;14.40;74.10;;;;;;5087228;28;20019;-63
2022/10/06 04:53:49;;;;;;;3.92;2.90;;;14.40;74.10;;;;;;5093226;28;20052;-64
2022/10/06 04:56:19;;;;;;;4.50;3.10;;;14.40;74.10;;;;;;5092160;28;20032;-64
2022/10/06 04:58:47;;;;;;;3.60;2.90;;;14.40;74.20;;;;;;5090940;28;20040;-60
2022/10/06 05:01:21;;;;;;;4.03;2.60;;;14.50;74.20;;;;;;5087731;28;20073;-63
2022/10/06 05:03:52;;;;;;;4.22;3.05;;;14.50;74.10;;;;;;5092291;28;20012;-62
2022/10/06 05:06:23;;;;;;;3.03;2.70;;;14.50;74.00;;;;;;5094522;28;20032;-63
2022/10/06 05:08:50;;;;;;;3.35;2.50;;;14.50;73.90;;;;;;5095019;28;20048;-64
2022/10/06 05:11:16;;;;;;;4.93;3.15;;;14.50;73.90;;;;;;5093248;28;20029;-61
2022/10/06 05:13:42;;;;;;;2.90;2.60;;;14.60;73.90;;;;;;5095408;28;20028;-60
2022/10/06 05:16:11;;;;;;;3.17;2.88;;;14.60;73.90;;;;;;5095316;28;20017;-60
2022/10/06 05:18:37;;;;;;;3.30;2.97;;;14.60;73.90;;;;;;5091823;28;20072;-63
2022/10/06 05:21:13;;;;;;;3.75;2.90;;;14.60;73.80;;;;;;5097599;28;20020;-62
2022/10/06 05:23:41;;;;;;;2.83;2.50;;;14.60;73.80;;;;;;5093962;28;20020;-60
2022/10/06 05:26:07;;;;;;;2.72;2.50;;;14.60;73.70;;;;;;5097691;28;20015;-62
2022/10/06 05:28:34;;;;;;;3.22;2.58;;;14.70;73.80;;;;;;5095376;28;20048;-64
2022/10/06 05:31:04;;;;;;;3.17;2.88;;;14.70;73.70;;;;;;5095462;28;20032;-62
2022/10/06 05:33:33;;;;;;;3.13;2.55;;;14.70;73.60;;;;;;5094701;28;20028;-63
2022/10/06 05:36:08;;;;;;;3.28;2.15;;;14.80;73.70;;;;;;5092304;28;20025;-61
2022/10/06 05:38:34;;;;;;;2.70;2.40;;;14.80;73.60;;;;;;5092575;28;20126;-63
2022/10/06 05:41:02;;;;;;;2.67;2.47;;;14.80;73.40;;;;;;5094715;28;20028;-61
2022/10/06 05:43:28;;;;;;;3.45;2.30;;;14.80;73.40;;;;;;5094996;28;20032;-64
2022/10/06 05:45:55;;;;;;;2.85;2.50;;;14.90;73.50;;;;;;5090368;28;20009;-62
2022/10/06 05:48:21;;;;;;;4.13;2.70;;;14.90;73.20;;;;;;5085590;28;20117;-64
2022/10/06 05:50:48;;;;;;;3.03;2.50;;;15.00;73.10;;;;;;5080637;28;20039;-62
2022/10/06 05:53:14;;;;;;;3.13;2.70;;;15.00;73.00;;;;;;5089235;28;20036;-60
2022/10/06 05:55:40;;;;;;;2.45;2.20;;;15.00;73.00;;;;;;5091172;28;20020;-63
2022/10/06 05:58:05;;;;;;;2.97;2.42;;;15.00;72.90;;;;;;5092120;28;20031;-61
2022/10/06 06:00:31;;;;;;;2.80;2.50;;;15.00;72.80;;;;;;5091511;28;20037;-63
2022/10/06 06:02:56;;;;;;;2.95;2.67;;;15.10;72.70;;;;;;5090719;28;20079;-64
2022/10/06 06:05:22;;;;;;;2.50;2.30;;;15.10;72.80;;;;;;5090218;28;20036;-64
2022/10/06 06:07:48;;;;;;;3.60;2.72;;;15.10;72.50;;;;;;5092378;28;20032;-63
2022/10/06 06:10:13;;;;;;;3.08;2.50;;;15.20;72.50;;;;;;5090896;28;20040;-63
2022/10/06 06:12:39;;;;;;;3.60;2.35;;;15.20;72.30;;;;;;5085381;28;20037;-63
2022/10/06 06:17:50;;;;;;;3.28;2.55;;;15.30;72.10;;;;;;5084212;28;20028;-64
2022/10/06 06:20:16;;;;;;;3.22;2.65;;;15.30;72.10;;;;;;5082590;28;20029;-66
2022/10/06 06:22:41;;;;;;;5.22;2.80;;;15.30;72.00;;;;;;5078554;28;20029;-61
2022/10/06 06:25:07;;;;;;;3.42;2.58;;;15.30;72.00;;;;;;5085586;28;20288;-62
2022/10/06 06:27:34;;;;;;;3.00;2.35;;;15.40;72.10;;;;;;5090604;28;20016;-64
2022/10/06 06:30:00;;;;;;;2.45;2.25;;;15.50;72.20;;;;;;5082131;28;20032;-63
2022/10/06 06:32:26;;;;;;;2.70;2.30;;;15.50;72.10;;;;;;5084573;28;21279;-63
2022/10/06 06:34:52;;;;;;;3.05;2.75;;;15.60;72.20;;;;;;5088907;28;20098;-63
2022/10/06 06:37:18;;;;;;;2.38;2.17;;;15.70;72.00;;;;;;5091205;28;20040;-64
2022/10/06 06:39:43;;;;;;;3.00;2.53;;;15.80;71.90;;;;;;5085001;28;20036;-64
2022/10/06 06:42:09;;;;;;;2.92;2.60;;;15.90;71.70;;;;;;5093519;28;20028;-63
2022/10/06 06:44:34;;;;;;;2.67;2.38;;;16.00;71.70;;;;;;5086349;28;20037;-64
2022/10/06 06:47:00;;;;;;;2.80;2.50;;;16.10;71.60;;;;;;5087828;28;20020;-64
2022/10/06 06:49:26;;;;;;;3.00;2.47;;;16.20;71.50;;;;;;5092864;28;20005;-63
2022/10/06 06:51:53;;;;;;;2.58;2.38;;;16.30;71.40;;;;;;5079836;28;20036;-63
2022/10/06 06:54:19;;;;;;;2.65;2.22;;;16.40;71.30;;;;;;5082738;28;20047;-62
2022/10/06 06:56:47;;;;;;;2.65;2.40;;;16.50;71.00;;;;;;5083491;28;20093;-64
2022/10/06 06:59:13;;;;;;;3.60;2.40;;;16.60;71.00;;;;;;5080997;28;20013;-63
2022/10/06 07:01:45;;;;;;;2.75;2.08;;;16.60;70.80;;;;;;5083776;28;20036;-63
2022/10/06 07:04:13;;;;;;;2.72;2.13;;;16.70;70.70;;;;;;5076459;28;20036;-64
2022/10/06 07:06:40;;;;;;;2.65;2.40;;;16.80;70.80;;;;;;5081253;28;20024;-64
2022/10/06 07:09:07;;;;;;;3.50;2.40;;;16.90;70.70;;;;;;5083686;28;20032;-65
2022/10/06 07:11:35;;;;;;;4.32;2.35;;;16.90;70.50;;;;;;5081503;28;20051;-65
2022/10/06 07:14:06;;;;;;;2.42;2.22;;;17.00;70.40;;;;;;5078113;28;20032;-65
2022/10/06 07:25:10;;;;;;;2.40;1.75;;;17.40;69.70;;;;;;5079892;28;20086;-64
2022/10/06 07:27:44;;;;;;;2.60;1.92;;;17.50;69.60;;;;;;5085716;28;20025;-64
2022/10/06 07:30:21;;;;;;;2.33;2.13;;;17.60;69.40;;;;;;5086837;28;20021;-64
2022/10/06 07:32:49;;;;;;;2.72;2.08;;;17.70;69.10;;;;;;5082564;28;20004;-66
2022/10/06 07:35:16;;;;;;;3.03;2.30;;;17.70;68.90;;;;;;5072054;28;20032;-61
2022/10/06 07:37:42;;;;;;;2.55;2.05;;;17.80;68.80;;;;;;5071576;28;20431;-61
2022/10/06 07:40:09;;;;;;;2.65;2.40;;;17.80;68.60;;;;;;5073892;28;20138;-66
2022/10/06 07:42:48;;;;;;;2.58;2.30;;;17.90;68.50;;;;;;5068985;28;20044;-66
2022/10/06 07:48:01;;;;;;;3.78;2.33;;;18.00;68.20;;;;;;5063925;28;20035;-66
2022/10/06 07:50:26;;;;;;;4.03;2.50;;;18.00;68.00;;;;;;5070265;28;20021;-64
2022/10/06 07:52:52;;;;;;;3.08;2.17;;;18.00;67.90;;;;;;5067642;28;20051;-65
2022/10/06 07:55:18;;;;;;;2.47;2.08;;;18.10;67.80;;;;;;5069750;28;20028;-66
2022/10/06 07:57:45;;;;;;;2.67;2.17;;;18.10;67.60;;;;;;5065882;28;20033;-67
2022/10/06 08:00:14;;;;;;;3.28;2.50;;;18.20;67.60;;;;;;5062963;28;20033;-65
2022/10/06 08:02:40;;;;;;;2.50;2.10;;;18.20;67.30;;;;;;5058398;28;20082;-62
2022/10/06 08:05:07;;;;;;;2.38;2.17;;;18.30;67.00;;;;;;5062843;28;20036;-66
2022/10/06 08:07:33;;;;;;;2.72;2.38;;;18.20;66.80;;;;;;5066796;28;20021;-65
2022/10/06 08:09:59;;;;;;;3.08;2.30;;;18.20;66.90;;;;;;5061684;28;20762;-66
2022/10/06 08:12:36;;;;;;;1.80;1.70;;;18.20;66.90;;;;;;5062679;28;20047;-65
2022/10/06 08:15:05;;;;;;;3.33;2.20;;;18.20;66.90;;;;;;5060109;28;20119;-65
2022/10/06 08:17:32;;;;;;;2.20;2.00;;;18.20;66.90;;;;;;5064184;28;20051;-63
2022/10/06 08:19:58;;;;;;;3.22;2.17;;;18.20;66.90;;;;;;5065636;28;20050;-63
2022/10/06 08:22:28;;;;;;;2.17;2.00;;;18.30;67.00;;;;;;5068414;28;20025;-64
2022/10/06 08:24:56;;;;;;;3.05;2.15;;;18.30;67.00;;;;;;5072905;28;20016;-65
2022/10/06 08:27:23;;;;;;;2.38;2.05;;;18.40;66.70;;;;;;5065531;28;20040;-66
2022/10/06 08:29:49;;;;;;;2.22;2.03;;;18.40;66.70;;;;;;5060272;28;20040;-63
2022/10/06 08:32:16;;;;;;;2.63;2.17;;;18.40;66.60;;;;;;5056488;28;20043;-63
2022/10/06 08:34:41;;;;;;;2.00;1.80;;;18.50;66.60;;;;;;5064755;28;20099;-66
2022/10/06 08:37:07;;;;;;;2.38;2.13;;;18.60;66.50;;;;;;5070351;28;20373;-62
2022/10/06 08:39:32;;;;;;;2.08;1.88;;;18.60;66.50;;;;;;5064578;28;20027;-66
2022/10/06 08:41:58;;;;;;;2.05;1.77;;;18.60;66.30;;;;;;5054024;28;20024;-66
2022/10/06 08:44:39;;;;;;;2.65;2.30;;;18.70;66.30;;;;;;5057050;28;20045;-64
2022/10/06 08:47:16;;;;;;;2.13;1.92;;;18.70;66.00;;;;;;5058370;28;20033;-62
2022/10/06 08:49:53;;;;;;;2.15;1.92;;;18.80;65.80;;;;;;5061203;28;20043;-64
2022/10/06 08:52:53;;;;;;;2.13;1.88;;;18.80;65.50;;;;;;5062408;28;21465;-62
2022/10/06 08:55:42;;;;;;;2.00;1.90;;;18.80;65.50;;;;;;5067814;28;20040;-64
2022/10/06 08:58:29;;;;;;;2.22;1.88;;;18.70;65.10;;;;;;5067357;28;20025;-66
2022/10/06 09:01:25;;;;;;;2.80;2.03;;;18.70;64.60;;;;;;5066187;28;20020;-65
2022/10/06 09:04:00;;;;;;;2.00;1.80;;;18.70;64.60;;;;;;5051807;28;20674;-65
2022/10/06 09:06:36;;;;;;;1.63;1.52;;;18.70;64.60;;;;;;5061209;28;20518;-63
2022/10/06 09:09:26;;;;;;;3.50;2.25;;;18.70;64.60;;;;;;5066823;28;20494;-65
2022/10/06 09:11:58;;;;;;;2.20;1.85;;;18.60;64.30;;;;;;5061712;28;20605;-62
2022/10/06 09:14:33;;;;;;;2.35;1.80;;;18.60;64.30;;;;;;5064391;28;20032;-65
2022/10/06 09:17:06;;;;;;;2.10;1.90;;;18.60;64.40;;;;;;5053710;28;20025;-66
2022/10/06 09:19:34;;;;;;;1.95;1.63;;;18.60;64.30;;;;;;5062048;28;20029;-62
2022/10/06 09:22:03;;;;;;;1.83;1.65;;;18.60;64.10;;;;;;5056232;28;20056;-65
2022/10/06 09:24:36;;;;;;;1.52;1.42;;;18.60;64.10;;;;;;5058223;28;20142;-63
2022/10/06 09:27:32;;;;;;;1.80;1.70;;;18.60;63.80;;;;;;5061592;28;20043;-65
2022/10/06 09:30:00;;;;;;;1.65;1.55;;;18.60;63.30;;;;;;5056245;28;20037;-63
2022/10/06 09:32:28;;;;;;;2.20;1.83;;;18.50;63.20;;;;;;5056439;28;20047;-65
2022/10/06 09:34:58;;;;;;;1.67;1.58;;;18.50;63.20;;;;;;5052469;28;20025;-65
2022/10/06 09:37:25;;;;;;;1.70;1.60;;;18.50;63.20;;;;;;5076371;28;20039;-65
2022/10/06 09:39:52;;;;;;;2.05;1.30;;;18.50;63.20;;;;;;5056424;28;20029;-67
2022/10/06 09:42:21;;;;;;;1.45;1.35;;;18.40;63.00;;;;;;5057072;28;20028;-64
2022/10/06 09:44:56;;;;;;;1.95;1.85;;;18.40;63.00;;;;;;5049639;28;20055;-61
2022/10/06 09:47:32;;;;;;;1.77;1.63;;;18.40;62.80;;;;;;5055037;28;20021;-64
2022/10/06 09:50:34;;;;;;;1.80;1.70;;;18.50;62.90;;;;;;5058941;28;20025;-63
2022/10/06 09:52:59;;;;;;;3.42;1.95;;;18.50;62.90;;;;;;5053059;28;20036;-64
2022/10/06 09:55:43;;;;;;;2.17;1.92;;;18.50;62.60;;;;;;5056548;28;20025;-62
2022/10/06 09:58:36;;;;;;;2.20;1.95;;;18.50;61.90;;;;;;5059267;28;20455;-63
2022/10/06 10:01:06;;;;;;;2.20;2.00;;;18.50;61.90;;;;;;5051991;28;20091;-64
2022/10/06 10:03:51;;;;;;;1.77;1.67;;;18.50;62.00;;;;;;5056992;28;20037;-65
2022/10/06 10:06:33;;;;;;;2.17;1.75;;;18.50;62.00;;;;;;5058333;28;20013;-61
2022/10/06 10:09:24;;;;;;;1.45;1.35;;;18.40;62.10;;;;;;5061879;28;20028;-64
2022/10/06 10:12:26;;;;;;;2.10;1.90;;;18.50;62.30;;;;;;5065709;28;20039;-64
2022/10/06 10:15:19;;;;;;;1.92;1.80;;;18.50;62.30;;;;;;5063039;28;20040;-62
2022/10/06 10:17:51;;;;;;;1.65;1.55;;;18.50;62.30;;;;;;5061062;28;20029;-65
2022/10/06 10:20:28;;;;;;;1.70;1.60;;;18.50;62.30;;;;;;5064125;28;20025;-65
2022/10/06 10:23:18;;;;;;;1.48;1.38;;;18.50;62.30;;;;;;5069893;28;20173;-62
2022/10/06 10:25:58;;;;;;;1.38;1.27;;;18.60;62.20;;;;;;5060130;28;20067;-65
2022/10/06 10:28:50;;;;;;;1.40;1.30;;;18.50;62.00;;;;;;5063130;28;20024;-66
2022/10/06 10:31:37;;;;;;;2.05;1.52;;;18.60;62.00;;;;;;5065686;28;20036;-65
2022/10/06 10:34:17;;;;;;;1.75;1.48;;;18.60;61.90;;;;;;5066099;28;20039;-65
2022/10/06 10:36:53;;;;;;;1.20;1.10;;;18.60;61.80;;;;;;5060474;28;20024;-62
2022/10/06 10:39:31;;;;;;;1.65;1.55;;;18.60;61.80;;;;;;5064146;28;20028;-65
2022/10/06 10:42:00;;;;;;;2.55;2.08;;;18.60;61.80;;;;;;5066059;28;20077;-63
2022/10/06 10:44:40;;;;;;;1.52;1.42;;;18.60;61.60;;;;;;5061306;28;20040;-63
2022/10/06 10:47:38;;;;;;;1.50;1.40;;;18.60;61.40;;;;;;5057372;28;20033;-64
2022/10/06 10:50:33;;;;;;;1.48;1.38;;;18.60;61.20;;;;;;5052166;28;20052;-65
2022/10/06 10:53:24;;;;;;;1.70;1.60;;;18.70;61.50;;;;;;5072420;28;20029;-66
2022/10/06 10:55:52;;;;;;;2.50;1.35;;;18.70;61.00;;;;;;5069722;28;20643;-66
2022/10/06 10:58:32;;;;;;;1.50;1.40;;;18.70;61.10;;;;;;5070947;28;20110;-67
2022/10/06 11:01:21;;;;;;;1.70;1.60;;;18.70;61.50;;;;;;5067704;28;20054;-67
2022/10/06 11:03:55;;;;;;;1.50;1.40;;;18.70;60.50;;;;;;5072892;28;20028;-67
2022/10/06 11:06:53;;;;;;;1.55;1.45;;;18.70;60.30;;;;;;5067734;28;20104;-64
2022/10/06 11:09:30;;;;;;;1.70;1.35;;;18.70;60.00;;;;;;5059380;28;20032;-68
2022/10/06 11:12:13;;;;;;;1.55;1.45;;;18.80;60.10;;;;;;5054497;28;20029;-65
2022/10/06 11:14:58;;;;;;;1.70;1.10;;;18.80;60.00;;;;;;5052553;28;20033;-65
2022/10/06 11:17:42;;;;;;;1.40;1.30;;;18.80;59.80;;;;;;5059710;28;20031;-66
2022/10/06 11:20:12;;;;;;;1.50;1.40;;;18.80;59.70;;;;;;5059697;28;20060;-66
2022/10/06 11:22:53;;;;;;;1.40;1.27;;;18.80;59.50;;;;;;5056679;28;20043;-66
2022/10/06 11:25:43;;;;;;;2.10;1.63;;;18.80;59.50;;;;;;5063694;28;20037;-67
2022/10/06 11:28:23;;;;;;;2.97;1.83;;;18.80;59.30;;;;;;5062341;28;20083;-68
2022/10/06 11:31:00;;;;;;;1.65;1.45;;;18.80;59.10;;;;;;5052397;28;20029;-66
2022/10/06 11:33:29;;;;;;;2.38;1.80;;;18.80;59.20;;;;;;5055602;28;20143;-65
2022/10/06 11:35:56;;;;;;;1.90;1.35;;;18.80;59.00;;;;;;5059484;28;20424;-63
2022/10/06 11:38:46;;;;;;;1.95;1.75;;;18.80;58.90;;;;;;5053036;28;20105;-65
2022/10/06 11:41:22;;;;;;;1.65;1.55;;;18.90;58.90;;;;;;5050852;28;20021;-62
2022/10/06 11:43:54;;;;;;;1.25;1.20;;;18.90;59.00;;;;;;5054052;28;20102;-64
2022/10/06 11:46:26;;;;;;;1.85;1.52;;;18.90;59.10;;;;;;5057697;28;20070;-65
2022/10/06 11:48:52;;;;;;;2.30;1.42;;;18.90;58.90;;;;;;5061236;28;20028;-65
2022/10/06 11:51:24;;;;;;;1.60;1.50;;;18.90;58.90;;;;;;5053205;28;20921;-65
2022/10/06 11:53:54;;;;;;;1.55;1.45;;;18.90;58.70;;;;;;5058839;28;20036;-65
2022/10/06 11:56:20;;;;;;;2.80;2.08;;;18.90;58.60;;;;;;5055013;28;20024;-66
2022/10/06 11:58:54;;;;;;;1.45;1.35;;;18.90;58.40;;;;;;5051983;28;20031;-63
2022/10/06 12:01:32;;;;;;;1.73;1.63;;;18.90;58.30;;;;;;5054170;28;20039;-64
2022/10/06 12:04:07;;;;;;;1.90;1.80;;;19.00;58.40;;;;;;5050833;28;21771;-63
2022/10/06 12:06:42;;;;;;;1.73;1.40;;;19.00;58.30;;;;;;5055494;28;20033;-63
2022/10/06 12:09:44;;;;;;;2.55;1.55;;;19.00;58.30;;;;;;5048912;28;20032;-65
2022/10/06 12:12:17;;;;;;;2.13;1.65;;;19.00;58.10;;;;;;5053054;28;20041;-66
2022/10/06 12:15:18;;;;;;;2.05;1.35;;;19.00;58.20;;;;;;5059594;28;20031;-63
2022/10/06 12:17:53;;;;;;;1.35;1.25;;;19.00;58.00;;;;;;5060474;28;20021;-65
2022/10/06 12:20:42;;;;;;;1.70;1.60;;;19.00;58.20;;;;;;5068562;28;20024;-65
2022/10/06 12:23:07;;;;;;;1.42;1.33;;;19.00;57.90;;;;;;5067528;28;20027;-66
2022/10/06 12:25:57;;;;;;;1.55;1.45;;;19.00;57.90;;;;;;5064417;28;20025;-65
2022/10/06 12:28:26;;;;;;;1.38;1.27;;;19.00;57.90;;;;;;5063687;28;20047;-66
2022/10/06 12:31:29;;;;;;;1.40;1.30;;;19.00;58.00;;;;;;5068188;28;20175;-63
2022/10/06 12:33:54;;;;;;;2.35;1.58;;;19.00;57.90;;;;;;5061441;28;20036;-65
2022/10/06 12:36:27;;;;;;;1.38;1.27;;;19.00;58.00;;;;;;5062388;28;20034;-65
2022/10/06 12:39:20;;;;;;;1.92;1.20;;;19.00;58.00;;;;;;5067761;28;20740;-65
2022/10/06 12:41:59;;;;;;;1.33;1.23;;;19.00;58.00;;;;;;5068895;28;20039;-66
2022/10/06 12:44:41;;;;;;;1.42;1.33;;;19.00;58.10;;;;;;5066366;28;20081;-63
2022/10/06 12:47:14;;;;;;;1.55;1.45;;;19.00;58.10;;;;;;5056081;28;20029;-65
2022/10/06 12:50:02;;;;;;;1.58;1.40;;;19.00;58.00;;;;;;5058022;28;20067;-65
2022/10/06 12:52:47;;;;;;;1.50;1.40;;;19.00;57.90;;;;;;5062577;28;20548;-62
2022/10/06 12:55:26;;;;;;;1.38;1.27;;;19.00;58.00;;;;;;5068451;28;20040;-64
2022/10/06 12:57:53;;;;;;;1.23;1.15;;;19.00;58.00;;;;;;5064110;28;20021;-64
2022/10/06 13:00:35;;;;;;;1.50;1.40;;;19.00;57.90;;;;;;5066522;28;20020;-63
2022/10/06 13:03:04;;;;;;;1.63;1.45;;;19.00;58.00;;;;;;5060430;28;20033;-62
2022/10/06 13:05:31;;;;;;;1.45;1.30;;;19.00;58.00;;;;;;5056285;28;20021;-65
2022/10/06 13:08:03;;;;;;;1.50;1.40;;;19.00;57.90;;;;;;5057115;28;20075;-65
2022/10/06 13:10:31;;;;;;;1.48;1.38;;;19.00;58.00;;;;;;5068976;28;20067;-63
2022/10/06 13:12:57;;;;;;;1.40;1.30;;;19.00;58.10;;;;;;5064403;28;20040;-64
2022/10/06 13:15:33;;;;;;;1.45;1.35;;;19.00;57.90;;;;;;5063135;28;20024;-64
2022/10/06 13:18:18;;;;;;;1.80;1.38;;;19.00;57.90;;;;;;5056277;28;20107;-66
2022/10/06 13:20:49;;;;;;;1.35;1.20;;;19.00;58.00;;;;;;5067352;28;20016;-62
2022/10/06 13:23:28;;;;;;;1.27;1.17;;;19.00;58.20;;;;;;5069494;28;20087;-64